Time;durP1;ratioP1;P1;durP2;ratioP2;P2;SDS_P1;SDS_P2;PMS_P1;PMS_P2;Temp;Humidity;BMP_temperature;BMP_pressure;BME280_temperature;BME280_humidity;BME280_pressure;Samples;Min_cycle;Max_cycle;Signal;HPM_P1;HPM_P2
2022/07/04 00:00:28;;;;;;;1.10;0.73;;;;;;;;;;4930116;29;20510;-79
2022/07/04 00:02:54;;;;;;;0.93;0.73;;;;;;;;;;4930926;29;20853;-81
2022/07/04 00:05:20;;;;;;;0.70;0.70;;;;;;;;;;4931887;29;20435;-82
2022/07/04 00:07:47;;;;;;;3.20;0.80;;;;;;;;;;4927296;29;20470;-82
2022/07/04 00:10:14;;;;;;;0.80;0.80;;;;;;;;;;4931148;29;20767;-76
2022/07/04 00:12:41;;;;;;;0.90;0.90;;;;;;;;;;4929465;29;20527;-76
2022/07/04 00:15:07;;;;;;;0.90;0.90;;;;;;;;;;4928665;29;20440;-82
2022/07/04 00:17:33;;;;;;;1.13;0.87;;;;;;;;;;4925810;29;20441;-80
2022/07/04 00:20:00;;;;;;;0.80;0.80;;;;;;;;;;4931683;29;20447;-78
2022/07/04 00:22:26;;;;;;;0.53;0.53;;;;;;;;;;4931048;29;20520;-78
2022/07/04 00:24:52;;;;;;;0.63;0.63;;;;;;;;;;4930931;29;20619;-83
2022/07/04 00:27:18;;;;;;;0.50;0.50;;;;;;;;;;4930314;29;21003;-76
2022/07/04 00:29:44;;;;;;;1.10;1.10;;;;;;;;;;4928692;29;20458;-78
2022/07/04 00:32:10;;;;;;;4.47;1.20;;;;;;;;;;4930200;29;20443;-83
2022/07/04 00:34:36;;;;;;;1.10;1.10;;;;;;;;;;4929768;29;20439;-83
2022/07/04 00:37:04;;;;;;;2.90;0.90;;;;;;;;;;4929409;29;21100;-80
2022/07/04 00:39:30;;;;;;;2.13;0.80;;;;;;;;;;4926455;29;20531;-80
2022/07/04 00:41:56;;;;;;;1.30;0.97;;;;;;;;;;4928152;29;20432;-82
2022/07/04 00:44:22;;;;;;;0.60;0.60;;;;;;;;;;4930729;29;20428;-83
2022/07/04 00:46:48;;;;;;;1.10;1.10;;;;;;;;;;4930003;29;20794;-82
2022/07/04 00:49:15;;;;;;;0.90;0.90;;;;;;;;;;4931136;29;20531;-81
2022/07/04 00:51:42;;;;;;;1.03;0.83;;;;;;;;;;4930919;29;20432;-82
2022/07/04 00:54:09;;;;;;;4.60;0.80;;;;;;;;;;4929333;29;20932;-82
2022/07/04 00:56:39;;;;;;;0.83;0.83;;;;;;;;;;4929136;29;20544;-78
2022/07/04 00:59:05;;;;;;;0.70;0.70;;;;;;;;;;4930844;29;20458;-82
2022/07/04 01:01:31;;;;;;;2.30;0.80;;;;;;;;;;4927615;29;20537;-81
2022/07/04 01:03:57;;;;;;;1.27;0.77;;;;;;;;;;4930025;29;20431;-78
2022/07/04 01:06:23;;;;;;;1.90;0.97;;;;;;;;;;4933038;29;20455;-80
2022/07/04 01:08:49;;;;;;;0.60;0.60;;;;;;;;;;4935113;29;20424;-79
2022/07/04 01:11:15;;;;;;;1.00;1.00;;;;;;;;;;4931996;29;20819;-77
2022/07/04 01:13:42;;;;;;;0.67;0.67;;;;;;;;;;4931943;29;20570;-82
2022/07/04 01:16:09;;;;;;;1.00;1.00;;;;;;;;;;4932177;29;20518;-82
2022/07/04 01:18:35;;;;;;;0.60;0.60;;;;;;;;;;4934308;29;20438;-76
2022/07/04 01:21:01;;;;;;;1.00;0.90;;;;;;;;;;4933678;29;20447;-76
2022/07/04 01:23:26;;;;;;;3.40;1.17;;;;;;;;;;4934379;29;20430;-82
2022/07/04 01:25:53;;;;;;;0.63;0.63;;;;;;;;;;4930247;29;20439;-80
2022/07/04 01:28:20;;;;;;;1.47;1.47;;;;;;;;;;4933334;29;20435;-82
2022/07/04 01:30:46;;;;;;;1.40;0.80;;;;;;;;;;4930679;29;20456;-81
2022/07/04 01:33:12;;;;;;;1.00;1.00;;;;;;;;;;4934269;29;20435;-83
2022/07/04 01:35:38;;;;;;;1.23;0.70;;;;;;;;;;4931399;29;21239;-83
2022/07/04 01:38:04;;;;;;;0.57;0.57;;;;;;;;;;4932268;29;20526;-82
2022/07/04 01:40:30;;;;;;;1.00;0.80;;;;;;;;;;4933343;29;20431;-83
2022/07/04 01:42:58;;;;;;;0.83;0.83;;;;;;;;;;4932060;29;20475;-82
2022/07/04 01:45:24;;;;;;;2.50;0.63;;;;;;;;;;4932144;29;20440;-80
2022/07/04 01:47:50;;;;;;;3.70;1.07;;;;;;;;;;4929894;29;20443;-80
2022/07/04 01:50:16;;;;;;;1.20;1.10;;;;;;;;;;4931401;29;20863;-81
2022/07/04 01:52:42;;;;;;;1.00;0.80;;;;;;;;;;4933635;29;20442;-83
2022/07/04 01:55:09;;;;;;;6.50;0.80;;;;;;;;;;4931143;29;20463;-83
2022/07/04 01:57:35;;;;;;;0.63;0.63;;;;;;;;;;4933151;29;20456;-81
2022/07/04 02:02:46;;;;;;;2.90;0.60;;;;;;;;;;4930393;29;20492;-79
2022/07/04 02:05:12;;;;;;;2.93;1.00;;;;;;;;;;4932736;29;20428;-79
2022/07/04 02:07:38;;;;;;;3.00;1.00;;;;;;;;;;4932292;29;20447;-81
2022/07/04 02:10:04;;;;;;;0.70;0.70;;;;;;;;;;4933639;29;20492;-82
2022/07/04 02:15:15;;;;;;;2.37;0.70;;;;;;;;;;4931907;29;20975;-82
2022/07/04 02:17:41;;;;;;;0.60;0.60;;;;;;;;;;4930058;29;20523;-80
2022/07/04 02:20:07;;;;;;;2.00;0.80;;;;;;;;;;4931844;29;20844;-79
2022/07/04 02:22:33;;;;;;;0.90;0.90;;;;;;;;;;4931095;29;20459;-79
2022/07/04 02:24:59;;;;;;;0.80;0.80;;;;;;;;;;4931075;29;20435;-82
2022/07/04 02:27:25;;;;;;;2.57;0.60;;;;;;;;;;4931944;29;20437;-82
2022/07/04 02:29:51;;;;;;;1.20;1.10;;;;;;;;;;4933311;29;20443;-83
2022/07/04 02:32:17;;;;;;;2.30;1.10;;;;;;;;;;4929793;29;20462;-82
2022/07/04 02:34:43;;;;;;;1.40;1.40;;;;;;;;;;4930889;29;20906;-82
2022/07/04 02:37:09;;;;;;;1.03;1.03;;;;;;;;;;4914926;29;20503;-81
2022/07/04 02:39:35;;;;;;;2.57;1.00;;;;;;;;;;4932066;29;20471;-81
2022/07/04 02:42:01;;;;;;;6.57;0.83;;;;;;;;;;4931832;29;20447;-77
2022/07/04 02:44:27;;;;;;;2.60;0.70;;;;;;;;;;4929416;29;20443;-82
2022/07/04 02:46:53;;;;;;;0.70;0.70;;;;;;;;;;4931510;29;20458;-82
2022/07/04 02:49:19;;;;;;;3.70;1.17;;;;;;;;;;4931074;29;20939;-82
2022/07/04 02:51:45;;;;;;;0.67;0.67;;;;;;;;;;4933793;29;20456;-82
2022/07/04 02:54:11;;;;;;;0.77;0.77;;;;;;;;;;4932423;29;21025;-82
2022/07/04 02:56:37;;;;;;;1.13;0.80;;;;;;;;;;4932526;29;20506;-82
2022/07/04 02:59:03;;;;;;;1.37;0.80;;;;;;;;;;4932359;29;20424;-81
2022/07/04 03:01:29;;;;;;;0.70;0.70;;;;;;;;;;4929303;29;20448;-82
2022/07/04 03:03:55;;;;;;;3.33;0.90;;;;;;;;;;4931672;29;20463;-82
2022/07/04 03:06:21;;;;;;;0.80;0.80;;;;;;;;;;4929741;29;20444;-82
2022/07/04 03:08:47;;;;;;;1.10;1.10;;;;;;;;;;4932517;29;20431;-76
2022/07/04 03:11:13;;;;;;;1.10;1.03;;;;;;;;;;4931743;29;20967;-81
2022/07/04 03:13:40;;;;;;;1.57;0.93;;;;;;;;;;4932605;29;21041;-81
2022/07/04 03:16:06;;;;;;;1.70;1.17;;;;;;;;;;4930330;29;20484;-81
2022/07/04 03:18:32;;;;;;;1.00;1.00;;;;;;;;;;4933113;29;20442;-79
2022/07/04 03:20:58;;;;;;;1.00;1.00;;;;;;;;;;4933057;29;20435;-82
2022/07/04 03:23:24;;;;;;;0.90;0.90;;;;;;;;;;4931750;29;20446;-76
2022/07/04 03:25:50;;;;;;;0.90;0.90;;;;;;;;;;4929334;29;20440;-82
2022/07/04 03:28:16;;;;;;;0.70;0.70;;;;;;;;;;4930462;29;20442;-78
2022/07/04 03:30:42;;;;;;;3.87;1.13;;;;;;;;;;4930587;29;20435;-81
2022/07/04 03:33:08;;;;;;;0.83;0.83;;;;;;;;;;4930181;29;20443;-83
2022/07/04 03:35:34;;;;;;;0.93;0.93;;;;;;;;;;4927985;29;21054;-81
2022/07/04 03:37:59;;;;;;;0.80;0.80;;;;;;;;;;4929467;29;20527;-80
2022/07/04 03:40:29;;;;;;;0.90;0.90;;;;;;;;;;4929759;29;20956;-79
2022/07/04 03:42:55;;;;;;;0.77;0.77;;;;;;;;;;4931671;29;20459;-81
2022/07/04 03:45:21;;;;;;;3.23;0.80;;;;;;;;;;4931077;29;20508;-80
2022/07/04 03:47:47;;;;;;;0.73;0.73;;;;;;;;;;4929840;29;20944;-83
2022/07/04 03:50:13;;;;;;;0.90;0.90;;;;;;;;;;4930552;29;20872;-78
2022/07/04 03:52:39;;;;;;;0.77;0.77;;;;;;;;;;4932262;29;20455;-71
2022/07/04 03:55:05;;;;;;;0.90;0.83;;;;;;;;;;4930420;29;20478;-71
2022/07/04 03:57:31;;;;;;;1.27;1.00;;;;;;;;;;4932812;29;20498;-72
2022/07/04 03:59:57;;;;;;;0.60;0.60;;;;;;;;;;4928004;29;20440;-71
2022/07/04 04:02:23;;;;;;;1.20;1.20;;;;;;;;;;4930747;29;20578;-71
2022/07/04 04:07:33;;;;;;;0.87;0.87;;;;;;;;;;4931473;29;20501;-72
2022/07/04 04:09:59;;;;;;;4.80;2.97;;;;;;;;;;4931249;29;21013;-71
2022/07/04 04:12:25;;;;;;;0.80;0.80;;;;;;;;;;4929050;29;20807;-71
2022/07/04 04:14:51;;;;;;;1.43;0.97;;;;;;;;;;4927747;29;20436;-71
2022/07/04 04:17:17;;;;;;;0.80;0.60;;;;;;;;;;4929080;29;20275;-71
2022/07/04 04:19:43;;;;;;;0.70;0.70;;;;;;;;;;4931971;29;20443;-71
2022/07/04 04:22:09;;;;;;;1.40;1.10;;;;;;;;;;4931179;29;21202;-71
2022/07/04 04:24:34;;;;;;;1.03;0.60;;;;;;;;;;4928719;29;20848;-71
2022/07/04 04:27:00;;;;;;;0.90;0.90;;;;;;;;;;4932327;29;20423;-71
2022/07/04 04:29:26;;;;;;;1.63;1.10;;;;;;;;;;4931730;29;20544;-71
2022/07/04 04:31:52;;;;;;;0.83;0.83;;;;;;;;;;4929556;29;20443;-71
2022/07/04 04:34:18;;;;;;;2.50;0.87;;;;;;;;;;4931944;29;20428;-71
2022/07/04 04:36:44;;;;;;;1.80;0.97;;;;;;;;;;4929082;29;20502;-71
2022/07/04 04:39:10;;;;;;;0.90;0.90;;;;;;;;;;4931976;29;20475;-72
2022/07/04 04:41:36;;;;;;;3.43;1.10;;;;;;;;;;4935030;29;20527;-72
2022/07/04 04:44:02;;;;;;;1.50;0.70;;;;;;;;;;4935186;29;20448;-71
2022/07/04 04:46:28;;;;;;;0.87;0.80;;;;;;;;;;4934771;29;20447;-71
2022/07/04 04:48:55;;;;;;;0.80;0.80;;;;;;;;;;4934078;29;20458;-71
2022/07/04 04:51:21;;;;;;;2.90;1.13;;;;;;;;;;4932506;29;20440;-71
2022/07/04 04:53:47;;;;;;;0.80;0.80;;;;;;;;;;4933662;29;20443;-71
2022/07/04 04:56:13;;;;;;;1.23;0.60;;;;;;;;;;4932946;29;20227;-75
2022/07/04 04:58:39;;;;;;;0.80;0.80;;;;;;;;;;4927871;29;20440;-71
2022/07/04 05:01:06;;;;;;;0.80;0.80;;;;;;;;;;4930196;29;20943;-71
2022/07/04 05:03:32;;;;;;;0.70;0.70;;;;;;;;;;4933596;29;20435;-71
2022/07/04 05:05:58;;;;;;;1.90;1.23;;;;;;;;;;4934497;29;20423;-71
2022/07/04 05:08:25;;;;;;;1.20;1.10;;;;;;;;;;4933869;29;20440;-71
2022/07/04 05:10:51;;;;;;;0.70;0.70;;;;;;;;;;4934374;29;20788;-71
2022/07/04 05:13:17;;;;;;;7.30;1.47;;;;;;;;;;4932032;29;20443;-71
2022/07/04 05:15:43;;;;;;;0.90;0.90;;;;;;;;;;4930977;29;20879;-71
2022/07/04 05:18:09;;;;;;;1.67;1.10;;;;;;;;;;4933036;29;20473;-74
2022/07/04 05:20:35;;;;;;;1.47;0.90;;;;;;;;;;4932457;29;20798;-75
2022/07/04 05:23:01;;;;;;;0.80;0.80;;;;;;;;;;4929908;29;20428;-71
2022/07/04 05:25:27;;;;;;;2.60;1.17;;;;;;;;;;4930528;29;20980;-72
2022/07/04 05:27:53;;;;;;;2.00;0.97;;;;;;;;;;4928085;29;20451;-72
2022/07/04 05:30:19;;;;;;;0.97;0.97;;;;;;;;;;4933922;29;20499;-71
2022/07/04 05:32:45;;;;;;;2.10;1.00;;;;;;;;;;4931331;29;20435;-71
2022/07/04 05:35:11;;;;;;;1.03;1.03;;;;;;;;;;4930761;29;20950;-71
2022/07/04 05:37:37;;;;;;;1.20;1.10;;;;;;;;;;4930039;29;20554;-71
2022/07/04 05:40:04;;;;;;;2.40;1.50;;;;;;;;;;4933902;29;20515;-71
2022/07/04 05:42:29;;;;;;;3.13;0.93;;;;;;;;;;4934444;29;20470;-71
2022/07/04 05:44:55;;;;;;;2.07;1.10;;;;;;;;;;4933964;29;20452;-71
2022/07/04 05:47:24;;;;;;;1.13;1.03;;;;;;;;;;4929203;29;20436;-72
2022/07/04 05:49:51;;;;;;;0.83;0.83;;;;;;;;;;4932193;29;20440;-71
2022/07/04 05:52:17;;;;;;;4.33;1.10;;;;;;;;;;4929977;29;20443;-72
2022/07/04 05:54:42;;;;;;;11.47;1.57;;;;;;;;;;4923973;29;20974;-71
2022/07/04 05:57:08;;;;;;;1.80;0.90;;;;;;;;;;4932818;29;20487;-75
2022/07/04 05:59:34;;;;;;;1.13;1.13;;;;;;;;;;4931671;29;20448;-72
2022/07/04 06:02:00;;;;;;;10.90;1.20;;;;;;;;;;4931234;29;20448;-72
2022/07/04 06:04:26;;;;;;;1.20;1.10;;;;;;;;;;4929278;29;20432;-71
2022/07/04 06:06:52;;;;;;;6.13;1.23;;;;;;;;;;4930989;29;20443;-72
2022/07/04 06:09:18;;;;;;;2.10;0.90;;;;;;;;;;4930080;29;20515;-75
2022/07/04 06:11:44;;;;;;;0.90;0.90;;;;;;;;;;4933602;29;20204;-71
2022/07/04 06:14:10;;;;;;;6.33;1.10;;;;;;;;;;4929871;29;20433;-70
2022/07/04 06:16:36;;;;;;;0.70;0.70;;;;;;;;;;4931443;29;20519;-72
2022/07/04 06:19:02;;;;;;;0.70;0.70;;;;;;;;;;4932694;29;20427;-73
2022/07/04 06:21:28;;;;;;;0.87;0.87;;;;;;;;;;4932639;29;20936;-71
2022/07/04 06:23:54;;;;;;;1.70;1.17;;;;;;;;;;4928961;29;20447;-71
2022/07/04 06:26:20;;;;;;;1.40;0.90;;;;;;;;;;4915213;29;20458;-71
2022/07/04 06:28:46;;;;;;;0.63;0.63;;;;;;;;;;4928531;29;20435;-71
2022/07/04 06:31:13;;;;;;;1.07;0.97;;;;;;;;;;4930705;29;20526;-71
2022/07/04 06:36:23;;;;;;;3.73;1.20;;;;;;;;;;4931401;29;20526;-71
2022/07/04 06:38:49;;;;;;;0.80;0.80;;;;;;;;;;4930929;29;20472;-75
2022/07/04 06:41:16;;;;;;;1.00;1.00;;;;;;;;;;4930313;29;20926;-71
2022/07/04 06:43:42;;;;;;;8.00;0.80;;;;;;;;;;4930189;29;20187;-71
2022/07/04 06:46:08;;;;;;;1.00;1.00;;;;;;;;;;4930240;29;20808;-71
2022/07/04 06:48:34;;;;;;;1.30;1.30;;;;;;;;;;4927003;29;20439;-71
2022/07/04 06:51:00;;;;;;;6.63;1.20;;;;;;;;;;4929307;29;20443;-67
2022/07/04 06:53:26;;;;;;;5.00;1.20;;;;;;;;;;4930696;29;20423;-66
2022/07/04 06:55:52;;;;;;;4.03;1.63;;;;;;;;;;4928787;29;20483;-66
2022/07/04 06:58:18;;;;;;;1.43;1.13;;;;;;;;;;4930638;29;20203;-67
2022/07/04 07:00:44;;;;;;;1.00;1.00;;;;;;;;;;4932253;29;20446;-68
2022/07/04 07:03:10;;;;;;;1.37;0.77;;;;;;;;;;4930018;29;20432;-68
2022/07/04 07:05:36;;;;;;;5.10;1.13;;;;;;;;;;4930996;29;20458;-68
2022/07/04 07:08:02;;;;;;;3.80;1.43;;;;;;;;;;4931759;29;20801;-67
2022/07/04 07:10:28;;;;;;;2.00;1.17;;;;;;;;;;4931012;29;20435;-67
2022/07/04 07:12:54;;;;;;;1.70;1.60;;;;;;;;;;4931696;29;20515;-70
2022/07/04 07:15:20;;;;;;;1.67;1.23;;;;;;;;;;4932361;29;20917;-66
2022/07/04 07:17:46;;;;;;;2.30;1.00;;;;;;;;;;4927399;29;20462;-67
2022/07/04 07:20:13;;;;;;;3.50;0.83;;;;;;;;;;4928943;29;20503;-67
2022/07/04 07:22:40;;;;;;;2.37;2.03;;;;;;;;;;4929370;29;20817;-71
2022/07/04 07:25:06;;;;;;;1.80;1.40;;;;;;;;;;4929429;29;20445;-68
2022/07/04 07:27:32;;;;;;;1.50;1.10;;;;;;;;;;4931253;29;20955;-67
2022/07/04 07:29:58;;;;;;;1.17;1.17;;;;;;;;;;4931306;29;20432;-71
2022/07/04 07:32:24;;;;;;;1.83;1.83;;;;;;;;;;4931895;29;20827;-68
2022/07/04 07:34:50;;;;;;;1.23;1.23;;;;;;;;;;4930865;29;20447;-66
2022/07/04 07:37:17;;;;;;;0.80;0.80;;;;;;;;;;4928338;29;21807;-69
2022/07/04 07:39:43;;;;;;;0.77;0.77;;;;;;;;;;4931030;29;20432;-70
2022/07/04 07:42:09;;;;;;;1.20;1.20;;;;;;;;;;4931761;29;20438;-69
2022/07/04 07:44:35;;;;;;;1.10;1.10;;;;;;;;;;4930170;29;20490;-71
2022/07/04 07:47:02;;;;;;;1.07;1.07;;;;;;;;;;4927772;29;20443;-66
2022/07/04 07:49:28;;;;;;;2.63;1.23;;;;;;;;;;4925815;29;20505;-69
2022/07/04 07:51:55;;;;;;;2.87;0.93;;;;;;;;;;4932165;29;20511;-67
2022/07/04 07:54:21;;;;;;;0.80;0.80;;;;;;;;;;4931477;29;20442;-67
2022/07/04 07:56:47;;;;;;;1.80;1.37;;;;;;;;;;4932142;29;20499;-69
2022/07/04 07:59:13;;;;;;;1.37;0.90;;;;;;;;;;4929779;29;20522;-68
2022/07/04 08:01:39;;;;;;;0.90;0.90;;;;;;;;;;4930508;29;20196;-68
2022/07/04 08:06:50;;;;;;;0.67;0.67;;;;;;;;;;4932422;29;20439;-68
2022/07/04 08:09:16;;;;;;;1.77;1.10;;;;;;;;;;4931407;29;20435;-68
2022/07/04 08:11:42;;;;;;;1.30;1.20;;;;;;;;;;4932850;29;20912;-67
2022/07/04 08:14:09;;;;;;;0.60;0.60;;;;;;;;;;4931542;29;20412;-67
2022/07/04 08:16:35;;;;;;;0.90;0.90;;;;;;;;;;4932216;29;20984;-69
2022/07/04 08:19:01;;;;;;;1.47;1.37;;;;;;;;;;4927014;29;20951;-72
2022/07/04 08:21:27;;;;;;;1.70;1.70;;;;;;;;;;4917059;29;20449;-71
2022/07/04 08:23:54;;;;;;;2.47;1.03;;;;;;;;;;4928733;29;20428;-72
2022/07/04 08:26:20;;;;;;;1.37;1.30;;;;;;;;;;4930421;29;20435;-71
2022/07/04 08:28:46;;;;;;;5.00;1.33;;;;;;;;;;4929819;29;20445;-72
2022/07/04 08:31:12;;;;;;;1.30;1.03;;;;;;;;;;4931512;29;20442;-72
2022/07/04 08:33:38;;;;;;;1.90;0.87;;;;;;;;;;4929230;29;20531;-72
2022/07/04 08:36:04;;;;;;;2.00;1.10;;;;;;;;;;4925838;29;20578;-72
2022/07/04 08:38:30;;;;;;;2.70;1.10;;;;;;;;;;4929111;29;21020;-81
2022/07/04 08:40:57;;;;;;;2.73;1.27;;;;;;;;;;4928771;29;20448;-72
2022/07/04 08:43:25;;;;;;;4.00;1.20;;;;;;;;;;4931387;29;20415;-75
2022/07/04 08:45:53;;;;;;;4.07;2.27;;;;;;;;;;4928941;29;20547;-72
2022/07/04 08:48:22;;;;;;;1.00;1.00;;;;;;;;;;4931211;29;20444;-72
2022/07/04 08:50:50;;;;;;;2.73;1.43;;;;;;;;;;4930549;29;20448;-71
2022/07/04 08:53:18;;;;;;;1.40;1.10;;;;;;;;;;4931007;29;20521;-73
2022/07/04 08:58:30;;;;;;;3.63;1.93;;;;;;;;;;4930663;29;20559;-71
2022/07/04 09:00:57;;;;;;;1.40;1.30;;;;;;;;;;4931261;29;20880;-71
2022/07/04 09:03:24;;;;;;;1.53;1.53;;;;;;;;;;4931934;29;20452;-71
2022/07/04 09:05:50;;;;;;;0.90;0.90;;;;;;;;;;4927711;29;20499;-71
2022/07/04 09:08:16;;;;;;;1.30;1.30;;;;;;;;;;4931290;29;20428;-71
2022/07/04 09:10:42;;;;;;;1.37;1.27;;;;;;;;;;4930346;29;20462;-71
2022/07/04 09:13:09;;;;;;;1.37;1.10;;;;;;;;;;4930733;29;20936;-72
2022/07/04 09:15:35;;;;;;;1.17;1.13;;;;;;;;;;4931630;29;20435;-71
2022/07/04 09:18:02;;;;;;;1.40;1.30;;;;;;;;;;4932184;29;20428;-72
2022/07/04 09:20:28;;;;;;;3.80;1.43;;;;;;;;;;4931243;29;20436;-73
2022/07/04 09:22:55;;;;;;;0.90;0.90;;;;;;;;;;4928158;29;20651;-71
2022/07/04 09:25:22;;;;;;;1.03;1.03;;;;;;;;;;4928098;29;20438;-72
2022/07/04 09:27:52;;;;;;;2.67;1.33;;;;;;;;;;4932146;29;20423;-73
2022/07/04 09:30:19;;;;;;;1.60;1.50;;;;;;;;;;4935123;29;20494;-71
2022/07/04 09:33:04;;;;;;;1.23;1.13;;;;;;;;;;4933773;29;20432;-71
2022/07/04 09:35:31;;;;;;;1.60;1.50;;;;;;;;;;4925257;29;21016;-71
2022/07/04 09:38:02;;;;;;;1.60;1.50;;;;;;;;;;4933556;29;20493;-72
2022/07/04 09:40:29;;;;;;;1.60;1.60;;;;;;;;;;4934146;29;20427;-71
2022/07/04 09:42:57;;;;;;;1.00;1.00;;;;;;;;;;4930194;29;20956;-81
2022/07/04 09:45:26;;;;;;;1.17;1.17;;;;;;;;;;4930162;29;20935;-81
2022/07/04 09:47:59;;;;;;;6.73;0.93;;;;;;;;;;4932820;29;20443;-79
2022/07/04 09:50:26;;;;;;;3.40;1.63;;;;;;;;;;4933466;29;20443;-80
2022/07/04 09:53:02;;;;;;;2.60;1.40;;;;;;;;;;4929934;29;20463;-78
2022/07/04 09:55:30;;;;;;;3.90;1.30;;;;;;;;;;4933166;29;20952;-79
2022/07/04 09:58:00;;;;;;;8.10;1.37;;;;;;;;;;4932760;29;20440;-80
2022/07/04 10:00:26;;;;;;;1.33;1.33;;;;;;;;;;4933807;29;20424;-80
2022/07/04 10:02:53;;;;;;;0.90;0.90;;;;;;;;;;4933189;29;20974;-75
2022/07/04 10:05:20;;;;;;;4.00;1.20;;;;;;;;;;4931178;29;20511;-78
2022/07/04 10:07:47;;;;;;;3.03;0.97;;;;;;;;;;4932841;29;20559;-78
2022/07/04 10:10:35;;;;;;;1.37;1.27;;;;;;;;;;4928979;29;20983;-78
2022/07/04 10:13:01;;;;;;;1.67;1.10;;;;;;;;;;4931280;29;21076;-77
2022/07/04 10:15:27;;;;;;;1.87;1.20;;;;;;;;;;4931518;29;21007;-80
2022/07/04 10:17:53;;;;;;;1.20;1.20;;;;;;;;;;4933293;29;20475;-78
2022/07/04 10:20:19;;;;;;;10.23;1.63;;;;;;;;;;4934486;29;20467;-75
2022/07/04 10:22:45;;;;;;;1.23;1.07;;;;;;;;;;4934381;29;20731;-78
2022/07/04 10:25:11;;;;;;;0.90;0.90;;;;;;;;;;4928328;29;20853;-83
2022/07/04 10:27:38;;;;;;;4.13;1.10;;;;;;;;;;4933551;29;20447;-79
2022/07/04 10:30:05;;;;;;;1.73;1.63;;;;;;;;;;4929065;29;20987;-82
2022/07/04 10:32:32;;;;;;;1.20;1.10;;;;;;;;;;4931694;29;20846;-88
2022/07/04 10:34:58;;;;;;;1.53;1.43;;;;;;;;;;4931309;29;20436;-81
2022/07/04 10:37:26;;;;;;;7.07;3.23;;;;;;;;;;4930745;29;20590;-79
2022/07/04 10:39:52;;;;;;;6.13;1.10;;;;;;;;;;4930831;29;20523;-79
2022/07/04 10:42:25;;;;;;;4.77;2.33;;;;;;;;;;4926544;29;20472;-76
2022/07/04 10:44:51;;;;;;;1.47;1.47;;;;;;;;;;4930064;29;20428;-79
2022/07/04 10:47:24;;;;;;;2.77;1.40;;;;;;;;;;4933784;29;20443;-78
2022/07/04 10:49:51;;;;;;;13.97;1.63;;;;;;;;;;4925427;29;20432;-79
2022/07/04 10:52:18;;;;;;;1.80;1.70;;;;;;;;;;4929035;29;20439;-82
2022/07/04 10:54:45;;;;;;;9.50;1.37;;;;;;;;;;4932305;29;20499;-79
2022/07/04 10:57:14;;;;;;;0.93;0.93;;;;;;;;;;4932658;29;21088;-82
2022/07/04 10:59:56;;;;;;;3.53;1.90;;;;;;;;;;4933992;29;20451;-80
2022/07/04 11:02:22;;;;;;;1.27;1.27;;;;;;;;;;4929172;29;20939;-83
2022/07/04 11:04:57;;;;;;;1.43;1.10;;;;;;;;;;4932666;29;20869;-79
2022/07/04 11:07:44;;;;;;;2.67;1.47;;;;;;;;;;4930730;29;20461;-83
2022/07/04 11:10:13;;;;;;;5.20;3.53;;;;;;;;;;4923891;29;20435;-80
2022/07/04 11:12:57;;;;;;;0.90;0.90;;;;;;;;;;4933299;29;20455;-83
2022/07/04 11:15:27;;;;;;;1.47;1.20;;;;;;;;;;4929079;29;20440;-82
2022/07/04 11:17:53;;;;;;;2.13;1.47;;;;;;;;;;4932144;29;20574;-82
2022/07/04 11:20:19;;;;;;;1.43;1.33;;;;;;;;;;4929263;29;20436;-80
2022/07/04 11:22:45;;;;;;;0.93;0.93;;;;;;;;;;4929883;29;20445;-82
2022/07/04 11:25:12;;;;;;;1.40;1.30;;;;;;;;;;4929259;29;20447;-83
2022/07/04 11:27:38;;;;;;;0.83;0.83;;;;;;;;;;4933391;29;20468;-83
2022/07/04 11:30:05;;;;;;;1.23;0.90;;;;;;;;;;4929926;29;20427;-79
2022/07/04 11:32:31;;;;;;;2.93;1.03;;;;;;;;;;4932327;29;20817;-81
2022/07/04 11:34:57;;;;;;;3.00;1.07;;;;;;;;;;4932982;29;20434;-80
2022/07/04 11:37:24;;;;;;;10.23;1.80;;;;;;;;;;4933128;29;20947;-81
2022/07/04 11:45:26;;;;;;;1.17;1.17;;;;;;;;;;4916084;29;20976;-82
2022/07/04 11:47:52;;;;;;;4.60;1.57;;;;;;;;;;4927107;29;20807;-82
2022/07/04 11:50:18;;;;;;;0.90;0.90;;;;;;;;;;4931326;29;20439;-79
2022/07/04 11:52:46;;;;;;;1.20;1.10;;;;;;;;;;4932585;29;20424;-78
2022/07/04 11:55:13;;;;;;;1.90;0.93;;;;;;;;;;4932175;29;20430;-81
2022/07/04 11:57:40;;;;;;;6.07;1.10;;;;;;;;;;4927127;29;21026;-81
2022/07/04 12:00:06;;;;;;;1.83;1.70;;;;;;;;;;4931395;29;20444;-81
2022/07/04 12:02:33;;;;;;;2.63;1.20;;;;;;;;;;4930802;29;20442;-81
2022/07/04 12:05:00;;;;;;;8.33;1.23;;;;;;;;;;4932033;29;20943;-82
2022/07/04 12:07:27;;;;;;;1.90;0.83;;;;;;;;;;4929622;29;20530;-80
2022/07/04 12:09:53;;;;;;;1.40;1.40;;;;;;;;;;4931335;29;20924;-77
2022/07/04 12:12:20;;;;;;;1.07;0.73;;;;;;;;;;4931415;29;20510;-81
2022/07/04 12:14:59;;;;;;;3.63;1.20;;;;;;;;;;4931023;29;20427;-81
2022/07/04 12:17:29;;;;;;;1.27;1.27;;;;;;;;;;4929995;29;20506;-82
2022/07/04 12:19:57;;;;;;;4.37;1.00;;;;;;;;;;4930903;29;20435;-79
2022/07/04 12:22:31;;;;;;;1.50;1.00;;;;;;;;;;4926776;29;20459;-81
2022/07/04 12:24:57;;;;;;;3.40;1.40;;;;;;;;;;4929744;29;20873;-80
2022/07/04 12:27:24;;;;;;;8.43;1.60;;;;;;;;;;4931728;29;20450;-81
2022/07/04 12:29:50;;;;;;;3.60;1.00;;;;;;;;;;4929531;29;20537;-81
2022/07/04 12:32:17;;;;;;;1.27;1.13;;;;;;;;;;4929745;29;20560;-81
2022/07/04 12:34:43;;;;;;;5.73;1.33;;;;;;;;;;4929374;29;20950;-78
2022/07/04 12:37:10;;;;;;;1.53;1.43;;;;;;;;;;4929908;29;20495;-81
2022/07/04 12:39:38;;;;;;;4.27;1.27;;;;;;;;;;4930366;29;20440;-79
2022/07/04 12:42:04;;;;;;;2.30;1.10;;;;;;;;;;4928754;29;20944;-81
2022/07/04 12:44:30;;;;;;;1.33;1.33;;;;;;;;;;4930611;29;20448;-80
2022/07/04 12:46:56;;;;;;;2.20;1.00;;;;;;;;;;4931249;29;21124;-80
2022/07/04 12:49:23;;;;;;;3.07;1.00;;;;;;;;;;4929334;29;20534;-80
2022/07/04 12:51:49;;;;;;;0.90;0.90;;;;;;;;;;4927152;29;21020;-80
2022/07/04 12:54:15;;;;;;;0.93;0.93;;;;;;;;;;4928599;29;20570;-77
2022/07/04 12:56:42;;;;;;;2.10;1.40;;;;;;;;;;4929596;29;20498;-80
2022/07/04 12:59:12;;;;;;;3.10;1.07;;;;;;;;;;4930008;29;20463;-79
2022/07/04 13:01:39;;;;;;;0.90;0.90;;;;;;;;;;4932694;29;20491;-80
2022/07/04 13:04:05;;;;;;;5.23;1.10;;;;;;;;;;4934535;29;20539;-82
2022/07/04 13:06:31;;;;;;;1.07;1.03;;;;;;;;;;4933870;29;20534;-81
2022/07/04 13:08:58;;;;;;;1.07;0.93;;;;;;;;;;4933793;29;20443;-80
2022/07/04 13:14:09;;;;;;;1.20;1.20;;;;;;;;;;4934766;29;20524;-81
2022/07/04 13:16:35;;;;;;;0.93;0.93;;;;;;;;;;4935735;29;20589;-80
2022/07/04 13:19:01;;;;;;;0.90;0.90;;;;;;;;;;4933850;29;20439;-80
2022/07/04 13:21:27;;;;;;;1.10;1.10;;;;;;;;;;4932083;29;20482;-78
2022/07/04 13:23:53;;;;;;;3.23;1.30;;;;;;;;;;4933386;29;20464;-79
2022/07/04 13:26:19;;;;;;;2.00;0.80;;;;;;;;;;4932560;29;20802;-81
2022/07/04 13:28:45;;;;;;;0.80;0.80;;;;;;;;;;4935530;29;20416;-81
2022/07/04 13:31:11;;;;;;;1.20;1.10;;;;;;;;;;4932766;29;21081;-75
2022/07/04 13:33:37;;;;;;;6.97;1.00;;;;;;;;;;4934034;29;20439;-81
2022/07/04 13:36:03;;;;;;;1.13;0.90;;;;;;;;;;4935138;29;20553;-80
2022/07/04 13:38:29;;;;;;;1.10;1.10;;;;;;;;;;4934589;29;20486;-81
2022/07/04 13:40:56;;;;;;;0.93;0.93;;;;;;;;;;4933037;29;20439;-80
2022/07/04 13:43:23;;;;;;;1.47;1.37;;;;;;;;;;4935221;29;20527;-80
2022/07/04 13:45:49;;;;;;;1.67;1.00;;;;;;;;;;4925535;29;20495;-79
2022/07/04 13:48:15;;;;;;;1.03;1.03;;;;;;;;;;4933859;29;20448;-79
2022/07/04 13:50:41;;;;;;;9.90;1.47;;;;;;;;;;4932192;29;20536;-80
2022/07/04 13:53:08;;;;;;;2.58;0.93;;;;;;;;;;4930261;29;20414;-75
2022/07/04 13:55:34;;;;;;;1.07;0.87;;;;;;;;;;4934278;29;20198;-76
2022/07/04 13:58:07;;;;;;;4.17;1.03;;;;;;;;;;4933586;29;20439;-81
2022/07/04 14:00:34;;;;;;;1.53;1.10;;;;;;;;;;4931438;29;20440;-82
2022/07/04 14:03:00;;;;;;;1.93;1.17;;;;;;;;;;4931966;29;20601;-81
2022/07/04 14:05:26;;;;;;;1.20;1.20;;;;;;;;;;4931002;29;20567;-77
2022/07/04 14:07:52;;;;;;;3.97;1.50;;;;;;;;;;4930176;29;20435;-81
2022/07/04 14:10:18;;;;;;;3.07;1.30;;;;;;;;;;4934913;29;20420;-82
2022/07/04 14:12:44;;;;;;;1.60;1.50;;;;;;;;;;4932819;29;20445;-81
2022/07/04 14:15:11;;;;;;;3.23;1.80;;;;;;;;;;4932292;29;20507;-76
2022/07/04 14:17:37;;;;;;;8.07;2.07;;;;;;;;;;4931761;29;20976;-81
2022/07/04 14:20:05;;;;;;;3.80;1.47;;;;;;;;;;4934706;29;20435;-81
2022/07/04 14:22:31;;;;;;;2.97;0.90;;;;;;;;;;4933334;29;20552;-81
2022/07/04 14:24:57;;;;;;;1.60;1.27;;;;;;;;;;4932562;29;20424;-80
2022/07/04 14:27:23;;;;;;;1.07;0.90;;;;;;;;;;4931125;29;20455;-82
2022/07/04 14:29:49;;;;;;;2.10;1.63;;;;;;;;;;4934574;29;20190;-80
2022/07/04 14:32:15;;;;;;;1.60;1.33;;;;;;;;;;4931662;29;20928;-81
2022/07/04 14:34:41;;;;;;;2.40;1.83;;;;;;;;;;4930775;29;20447;-78
2022/07/04 14:37:07;;;;;;;3.23;1.40;;;;;;;;;;4933804;29;20499;-81
2022/07/04 14:39:33;;;;;;;1.67;1.40;;;;;;;;;;4933118;29;20560;-81
2022/07/04 14:41:59;;;;;;;2.00;1.40;;;;;;;;;;4933559;29;20428;-75
2022/07/04 14:44:25;;;;;;;1.03;1.03;;;;;;;;;;4932711;29;20427;-79
2022/07/04 14:46:51;;;;;;;2.97;1.20;;;;;;;;;;4933919;29;20786;-76
2022/07/04 14:49:17;;;;;;;4.17;1.40;;;;;;;;;;4932240;29;20424;-78
2022/07/04 14:51:43;;;;;;;0.90;0.90;;;;;;;;;;4933469;29;20963;-77
2022/07/04 14:54:10;;;;;;;1.27;1.27;;;;;;;;;;4932549;29;20420;-79
2022/07/04 14:56:36;;;;;;;3.70;1.20;;;;;;;;;;4931985;29;20479;-77
2022/07/04 14:59:06;;;;;;;3.57;1.73;;;;;;;;;;4929940;29;20448;-79
2022/07/04 15:01:32;;;;;;;5.93;1.53;;;;;;;;;;4933911;29;20439;-79
2022/07/04 15:03:58;;;;;;;12.47;1.67;;;;;;;;;;4932569;29;20432;-79